sensor_id;sensor_type;location;lat;lon;timestamp;P1;durP1;ratioP1;P2;durP2;ratioP2
4464;SDS011;2245;48.136;13.428;2023-02-28T00:00:00;10.43;;;4.93;;
4464;SDS011;2245;48.136;13.428;2023-02-28T00:02:33;10.33;;;4.90;;
4464;SDS011;2245;48.136;13.428;2023-02-28T00:05:00;6.30;;;4.73;;
4464;SDS011;2245;48.136;13.428;2023-02-28T00:07:28;12.03;;;4.27;;
4464;SDS011;2245;48.136;13.428;2023-02-28T00:09:55;10.53;;;6.20;;
4464;SDS011;2245;48.136;13.428;2023-02-28T00:12:22;6.10;;;4.37;;
4464;SDS011;2245;48.136;13.428;2023-02-28T00:14:49;8.53;;;4.37;;
4464;SDS011;2245;48.136;13.428;2023-02-28T00:17:17;9.03;;;4.10;;
4464;SDS011;2245;48.136;13.428;2023-02-28T00:19:46;3.30;;;2.60;;
4464;SDS011;2245;48.136;13.428;2023-02-28T00:22:14;9.20;;;5.57;;
4464;SDS011;2245;48.136;13.428;2023-02-28T00:24:41;11.50;;;4.40;;
4464;SDS011;2245;48.136;13.428;2023-02-28T00:27:08;4.90;;;3.70;;
4464;SDS011;2245;48.136;13.428;2023-02-28T00:29:35;10.10;;;6.00;;
4464;SDS011;2245;48.136;13.428;2023-02-28T00:32:03;20.13;;;6.93;;
4464;SDS011;2245;48.136;13.428;2023-02-28T00:34:32;11.00;;;6.27;;
4464;SDS011;2245;48.136;13.428;2023-02-28T00:37:02;13.00;;;7.17;;
4464;SDS011;2245;48.136;13.428;2023-02-28T00:39:30;11.20;;;3.33;;
4464;SDS011;2245;48.136;13.428;2023-02-28T00:41:57;10.53;;;5.20;;
4464;SDS011;2245;48.136;13.428;2023-02-28T00:44:24;12.23;;;6.70;;
4464;SDS011;2245;48.136;13.428;2023-02-28T00:46:51;19.67;;;7.27;;
4464;SDS011;2245;48.136;13.428;2023-02-28T00:49:19;6.60;;;4.40;;
4464;SDS011;2245;48.136;13.428;2023-02-28T00:51:47;13.47;;;7.37;;
4464;SDS011;2245;48.136;13.428;2023-02-28T00:54:14;12.63;;;7.20;;
4464;SDS011;2245;48.136;13.428;2023-02-28T00:56:41;9.30;;;5.30;;
4464;SDS011;2245;48.136;13.428;2023-02-28T00:59:08;11.80;;;6.40;;
4464;SDS011;2245;48.136;13.428;2023-02-28T01:01:36;12.07;;;5.67;;
4464;SDS011;2245;48.136;13.428;2023-02-28T01:04:03;19.30;;;7.63;;
4464;SDS011;2245;48.136;13.428;2023-02-28T01:06:30;9.73;;;4.70;;
4464;SDS011;2245;48.136;13.428;2023-02-28T01:08:58;13.63;;;7.03;;
4464;SDS011;2245;48.136;13.428;2023-02-28T01:11:25;13.90;;;6.70;;
4464;SDS011;2245;48.136;13.428;2023-02-28T01:13:52;11.80;;;5.03;;
4464;SDS011;2245;48.136;13.428;2023-02-28T01:16:19;17.30;;;7.27;;
4464;SDS011;2245;48.136;13.428;2023-02-28T01:18:46;12.60;;;7.30;;
4464;SDS011;2245;48.136;13.428;2023-02-28T01:21:14;14.63;;;7.87;;
4464;SDS011;2245;48.136;13.428;2023-02-28T01:23:42;17.07;;;7.90;;
4464;SDS011;2245;48.136;13.428;2023-02-28T01:26:11;25.57;;;7.90;;
4464;SDS011;2245;48.136;13.428;2023-02-28T01:28:39;13.47;;;7.80;;
4464;SDS011;2245;48.136;13.428;2023-02-28T01:31:06;15.07;;;7.07;;
4464;SDS011;2245;48.136;13.428;2023-02-28T01:33:33;18.30;;;8.07;;
4464;SDS011;2245;48.136;13.428;2023-02-28T01:36:00;15.90;;;7.50;;
4464;SDS011;2245;48.136;13.428;2023-02-28T01:38:28;11.00;;;5.03;;
4464;SDS011;2245;48.136;13.428;2023-02-28T01:40:55;19.07;;;8.53;;
4464;SDS011;2245;48.136;13.428;2023-02-28T01:43:24;19.10;;;7.80;;
4464;SDS011;2245;48.136;13.428;2023-02-28T01:45:52;21.73;;;8.73;;
4464;SDS011;2245;48.136;13.428;2023-02-28T01:48:21;13.00;;;7.50;;
4464;SDS011;2245;48.136;13.428;2023-02-28T01:50:51;16.77;;;8.07;;
4464;SDS011;2245;48.136;13.428;2023-02-28T01:53:19;8.73;;;5.57;;
4464;SDS011;2245;48.136;13.428;2023-02-28T01:55:49;17.37;;;6.90;;
4464;SDS011;2245;48.136;13.428;2023-02-28T01:58:17;14.27;;;7.60;;
4464;SDS011;2245;48.136;13.428;2023-02-28T02:00:46;18.30;;;10.47;;
4464;SDS011;2245;48.136;13.428;2023-02-28T02:03:13;10.97;;;7.10;;
4464;SDS011;2245;48.136;13.428;2023-02-28T02:05:44;8.10;;;4.43;;
4464;SDS011;2245;48.136;13.428;2023-02-28T02:08:13;10.43;;;5.83;;
4464;SDS011;2245;48.136;13.428;2023-02-28T02:10:42;22.13;;;9.27;;
4464;SDS011;2245;48.136;13.428;2023-02-28T02:13:14;8.70;;;5.60;;
4464;SDS011;2245;48.136;13.428;2023-02-28T02:15:49;16.13;;;7.93;;
4464;SDS011;2245;48.136;13.428;2023-02-28T02:18:25;12.00;;;6.40;;
4464;SDS011;2245;48.136;13.428;2023-02-28T02:23:54;15.17;;;7.33;;
4464;SDS011;2245;48.136;13.428;2023-02-28T02:26:44;11.97;;;7.97;;
4464;SDS011;2245;48.136;13.428;2023-02-28T02:32:16;11.57;;;7.20;;
4464;SDS011;2245;48.136;13.428;2023-02-28T02:34:52;25.60;;;10.80;;
4464;SDS011;2245;48.136;13.428;2023-02-28T02:37:27;23.13;;;8.17;;
4464;SDS011;2245;48.136;13.428;2023-02-28T02:39:59;14.53;;;8.30;;
4464;SDS011;2245;48.136;13.428;2023-02-28T02:42:31;17.47;;;9.03;;
4464;SDS011;2245;48.136;13.428;2023-02-28T02:45:04;16.50;;;7.60;;
4464;SDS011;2245;48.136;13.428;2023-02-28T02:47:33;20.43;;;11.40;;
4464;SDS011;2245;48.136;13.428;2023-02-28T02:50:04;12.67;;;7.23;;
4464;SDS011;2245;48.136;13.428;2023-02-28T02:52:34;26.27;;;11.53;;
4464;SDS011;2245;48.136;13.428;2023-02-28T02:55:04;26.00;;;10.13;;
4464;SDS011;2245;48.136;13.428;2023-02-28T02:57:33;17.27;;;8.40;;
4464;SDS011;2245;48.136;13.428;2023-02-28T03:00:04;19.10;;;9.87;;
4464;SDS011;2245;48.136;13.428;2023-02-28T03:02:34;23.50;;;10.23;;
4464;SDS011;2245;48.136;13.428;2023-02-28T03:05:04;23.90;;;9.03;;
4464;SDS011;2245;48.136;13.428;2023-02-28T03:07:34;11.00;;;5.50;;
4464;SDS011;2245;48.136;13.428;2023-02-28T03:10:02;20.00;;;10.43;;
4464;SDS011;2245;48.136;13.428;2023-02-28T03:12:32;22.97;;;8.87;;
4464;SDS011;2245;48.136;13.428;2023-02-28T03:15:04;18.90;;;8.00;;
4464;SDS011;2245;48.136;13.428;2023-02-28T03:17:44;30.10;;;13.20;;
4464;SDS011;2245;48.136;13.428;2023-02-28T03:20:24;16.90;;;7.20;;
4464;SDS011;2245;48.136;13.428;2023-02-28T03:22:58;19.13;;;8.13;;
4464;SDS011;2245;48.136;13.428;2023-02-28T03:25:31;17.50;;;7.33;;
4464;SDS011;2245;48.136;13.428;2023-02-28T03:28:05;24.20;;;9.50;;
4464;SDS011;2245;48.136;13.428;2023-02-28T03:30:36;29.37;;;11.60;;
4464;SDS011;2245;48.136;13.428;2023-02-28T03:33:08;18.50;;;9.77;;
4464;SDS011;2245;48.136;13.428;2023-02-28T03:35:40;18.83;;;9.77;;
4464;SDS011;2245;48.136;13.428;2023-02-28T03:38:11;12.70;;;6.13;;
4464;SDS011;2245;48.136;13.428;2023-02-28T03:40:41;24.57;;;11.43;;
4464;SDS011;2245;48.136;13.428;2023-02-28T03:43:12;22.40;;;9.83;;
4464;SDS011;2245;48.136;13.428;2023-02-28T03:45:41;20.03;;;9.13;;
4464;SDS011;2245;48.136;13.428;2023-02-28T03:48:11;22.80;;;9.00;;
4464;SDS011;2245;48.136;13.428;2023-02-28T03:50:41;8.40;;;4.33;;
4464;SDS011;2245;48.136;13.428;2023-02-28T03:53:11;21.90;;;8.33;;
4464;SDS011;2245;48.136;13.428;2023-02-28T03:55:40;18.93;;;9.70;;
4464;SDS011;2245;48.136;13.428;2023-02-28T03:58:11;17.77;;;9.37;;
4464;SDS011;2245;48.136;13.428;2023-02-28T04:00:43;20.70;;;9.83;;
4464;SDS011;2245;48.136;13.428;2023-02-28T04:03:12;19.27;;;9.90;;
4464;SDS011;2245;48.136;13.428;2023-02-28T04:05:46;23.67;;;8.53;;
4464;SDS011;2245;48.136;13.428;2023-02-28T04:08:16;23.50;;;11.20;;
4464;SDS011;2245;48.136;13.428;2023-02-28T04:10:43;16.90;;;8.87;;
4464;SDS011;2245;48.136;13.428;2023-02-28T04:13:12;18.30;;;8.40;;
4464;SDS011;2245;48.136;13.428;2023-02-28T04:15:39;20.40;;;9.13;;
4464;SDS011;2245;48.136;13.428;2023-02-28T04:18:06;21.40;;;11.77;;
4464;SDS011;2245;48.136;13.428;2023-02-28T04:20:33;25.37;;;9.57;;
4464;SDS011;2245;48.136;13.428;2023-02-28T04:23:01;27.20;;;11.03;;
4464;SDS011;2245;48.136;13.428;2023-02-28T04:25:28;14.87;;;7.87;;
4464;SDS011;2245;48.136;13.428;2023-02-28T04:27:54;18.73;;;6.93;;
4464;SDS011;2245;48.136;13.428;2023-02-28T04:30:21;31.20;;;12.90;;
4464;SDS011;2245;48.136;13.428;2023-02-28T04:32:48;13.20;;;5.50;;
4464;SDS011;2245;48.136;13.428;2023-02-28T04:35:15;18.10;;;7.40;;
4464;SDS011;2245;48.136;13.428;2023-02-28T04:37:42;19.60;;;9.40;;
4464;SDS011;2245;48.136;13.428;2023-02-28T04:40:11;21.23;;;11.37;;
4464;SDS011;2245;48.136;13.428;2023-02-28T04:42:38;16.87;;;9.03;;
4464;SDS011;2245;48.136;13.428;2023-02-28T04:45:05;12.13;;;6.70;;
4464;SDS011;2245;48.136;13.428;2023-02-28T04:47:35;34.13;;;9.33;;
4464;SDS011;2245;48.136;13.428;2023-02-28T04:50:02;24.10;;;10.07;;
4464;SDS011;2245;48.136;13.428;2023-02-28T04:52:29;24.47;;;12.97;;
4464;SDS011;2245;48.136;13.428;2023-02-28T04:54:56;32.10;;;11.23;;
4464;SDS011;2245;48.136;13.428;2023-02-28T04:57:24;30.00;;;14.00;;
4464;SDS011;2245;48.136;13.428;2023-02-28T04:59:51;24.87;;;12.27;;
4464;SDS011;2245;48.136;13.428;2023-02-28T05:02:18;25.33;;;11.60;;
4464;SDS011;2245;48.136;13.428;2023-02-28T05:04:46;21.77;;;10.53;;
4464;SDS011;2245;48.136;13.428;2023-02-28T05:07:13;21.80;;;8.97;;
4464;SDS011;2245;48.136;13.428;2023-02-28T05:09:39;21.17;;;8.90;;
4464;SDS011;2245;48.136;13.428;2023-02-28T05:12:07;18.47;;;10.33;;
4464;SDS011;2245;48.136;13.428;2023-02-28T05:14:36;19.93;;;7.53;;
4464;SDS011;2245;48.136;13.428;2023-02-28T05:17:03;19.77;;;10.13;;
4464;SDS011;2245;48.136;13.428;2023-02-28T05:19:30;17.47;;;8.63;;
4464;SDS011;2245;48.136;13.428;2023-02-28T05:21:57;17.97;;;8.97;;
4464;SDS011;2245;48.136;13.428;2023-02-28T05:24:24;15.40;;;7.53;;
4464;SDS011;2245;48.136;13.428;2023-02-28T05:26:52;16.03;;;8.70;;
4464;SDS011;2245;48.136;13.428;2023-02-28T05:29:20;22.60;;;9.93;;
4464;SDS011;2245;48.136;13.428;2023-02-28T05:31:48;23.27;;;8.27;;
4464;SDS011;2245;48.136;13.428;2023-02-28T05:34:15;18.23;;;8.13;;
4464;SDS011;2245;48.136;13.428;2023-02-28T05:36:42;16.67;;;9.70;;
4464;SDS011;2245;48.136;13.428;2023-02-28T05:39:09;23.73;;;11.33;;
4464;SDS011;2245;48.136;13.428;2023-02-28T05:41:38;25.40;;;14.03;;
4464;SDS011;2245;48.136;13.428;2023-02-28T05:44:06;31.53;;;14.10;;
4464;SDS011;2245;48.136;13.428;2023-02-28T05:46:33;15.20;;;9.00;;
4464;SDS011;2245;48.136;13.428;2023-02-28T05:49:01;20.50;;;9.60;;
4464;SDS011;2245;48.136;13.428;2023-02-28T05:51:28;35.03;;;14.13;;
4464;SDS011;2245;48.136;13.428;2023-02-28T05:53:58;26.63;;;11.77;;
4464;SDS011;2245;48.136;13.428;2023-02-28T05:56:26;17.83;;;9.60;;
4464;SDS011;2245;48.136;13.428;2023-02-28T05:58:53;19.70;;;9.63;;
4464;SDS011;2245;48.136;13.428;2023-02-28T06:01:21;24.53;;;7.83;;
4464;SDS011;2245;48.136;13.428;2023-02-28T06:03:49;23.00;;;9.97;;
4464;SDS011;2245;48.136;13.428;2023-02-28T06:06:17;11.90;;;5.00;;
4464;SDS011;2245;48.136;13.428;2023-02-28T06:08:44;20.93;;;10.53;;
4464;SDS011;2245;48.136;13.428;2023-02-28T06:11:11;19.00;;;9.87;;
4464;SDS011;2245;48.136;13.428;2023-02-28T06:13:38;22.43;;;12.47;;
4464;SDS011;2245;48.136;13.428;2023-02-28T06:16:06;20.07;;;9.40;;
4464;SDS011;2245;48.136;13.428;2023-02-28T06:18:34;25.17;;;11.87;;
4464;SDS011;2245;48.136;13.428;2023-02-28T06:21:00;21.50;;;9.77;;
4464;SDS011;2245;48.136;13.428;2023-02-28T06:23:29;26.20;;;10.30;;
4464;SDS011;2245;48.136;13.428;2023-02-28T06:25:55;34.03;;;12.57;;
4464;SDS011;2245;48.136;13.428;2023-02-28T06:28:23;18.60;;;7.60;;
4464;SDS011;2245;48.136;13.428;2023-02-28T06:30:50;33.20;;;12.47;;
4464;SDS011;2245;48.136;13.428;2023-02-28T06:33:17;50.30;;;20.83;;
4464;SDS011;2245;48.136;13.428;2023-02-28T06:35:45;37.70;;;19.50;;
4464;SDS011;2245;48.136;13.428;2023-02-28T06:38:13;22.27;;;11.60;;
4464;SDS011;2245;48.136;13.428;2023-02-28T06:40:41;22.80;;;10.07;;
4464;SDS011;2245;48.136;13.428;2023-02-28T06:43:08;17.30;;;8.17;;
4464;SDS011;2245;48.136;13.428;2023-02-28T06:45:41;54.40;;;18.63;;
4464;SDS011;2245;48.136;13.428;2023-02-28T06:48:08;33.20;;;15.37;;
4464;SDS011;2245;48.136;13.428;2023-02-28T06:50:35;32.47;;;13.67;;
4464;SDS011;2245;48.136;13.428;2023-02-28T06:53:02;23.13;;;11.37;;
4464;SDS011;2245;48.136;13.428;2023-02-28T06:55:29;38.93;;;17.80;;
4464;SDS011;2245;48.136;13.428;2023-02-28T06:57:58;19.37;;;10.90;;
4464;SDS011;2245;48.136;13.428;2023-02-28T07:00:25;137.10;;;40.07;;
4464;SDS011;2245;48.136;13.428;2023-02-28T07:02:52;71.63;;;26.23;;
4464;SDS011;2245;48.136;13.428;2023-02-28T07:05:20;61.37;;;24.00;;
4464;SDS011;2245;48.136;13.428;2023-02-28T07:07:47;70.93;;;29.00;;
4464;SDS011;2245;48.136;13.428;2023-02-28T07:10:14;80.00;;;31.93;;
4464;SDS011;2245;48.136;13.428;2023-02-28T07:12:42;52.83;;;20.60;;
4464;SDS011;2245;48.136;13.428;2023-02-28T07:15:11;109.13;;;39.03;;
4464;SDS011;2245;48.136;13.428;2023-02-28T07:17:38;43.60;;;13.77;;
4464;SDS011;2245;48.136;13.428;2023-02-28T07:20:05;51.33;;;21.30;;
4464;SDS011;2245;48.136;13.428;2023-02-28T07:22:33;47.17;;;22.20;;
4464;SDS011;2245;48.136;13.428;2023-02-28T07:25:00;30.57;;;13.77;;
4464;SDS011;2245;48.136;13.428;2023-02-28T07:27:27;30.67;;;13.60;;
4464;SDS011;2245;48.136;13.428;2023-02-28T07:29:54;19.53;;;8.67;;
4464;SDS011;2245;48.136;13.428;2023-02-28T07:32:22;22.17;;;11.13;;
4464;SDS011;2245;48.136;13.428;2023-02-28T07:34:49;24.17;;;9.90;;
4464;SDS011;2245;48.136;13.428;2023-02-28T07:37:16;22.27;;;11.77;;
4464;SDS011;2245;48.136;13.428;2023-02-28T07:39:43;27.27;;;10.77;;
4464;SDS011;2245;48.136;13.428;2023-02-28T07:42:10;28.50;;;12.80;;
4464;SDS011;2245;48.136;13.428;2023-02-28T07:44:37;25.17;;;13.30;;
4464;SDS011;2245;48.136;13.428;2023-02-28T07:47:06;19.80;;;11.47;;
4464;SDS011;2245;48.136;13.428;2023-02-28T07:49:35;40.73;;;15.03;;
4464;SDS011;2245;48.136;13.428;2023-02-28T07:52:02;15.20;;;8.20;;
4464;SDS011;2245;48.136;13.428;2023-02-28T07:54:29;30.87;;;10.87;;
4464;SDS011;2245;48.136;13.428;2023-02-28T07:56:56;27.07;;;12.20;;
4464;SDS011;2245;48.136;13.428;2023-02-28T07:59:23;29.10;;;13.07;;
4464;SDS011;2245;48.136;13.428;2023-02-28T08:01:50;27.60;;;11.20;;
4464;SDS011;2245;48.136;13.428;2023-02-28T08:04:17;31.73;;;12.20;;
4464;SDS011;2245;48.136;13.428;2023-02-28T08:06:46;45.10;;;13.83;;
4464;SDS011;2245;48.136;13.428;2023-02-28T08:09:12;23.60;;;10.20;;
4464;SDS011;2245;48.136;13.428;2023-02-28T08:11:39;19.87;;;10.60;;
4464;SDS011;2245;48.136;13.428;2023-02-28T08:14:06;18.03;;;8.20;;
4464;SDS011;2245;48.136;13.428;2023-02-28T08:16:33;18.10;;;10.60;;
4464;SDS011;2245;48.136;13.428;2023-02-28T08:19:00;22.33;;;10.43;;
4464;SDS011;2245;48.136;13.428;2023-02-28T08:21:27;27.67;;;10.87;;
4464;SDS011;2245;48.136;13.428;2023-02-28T08:23:55;31.57;;;12.73;;
4464;SDS011;2245;48.136;13.428;2023-02-28T08:26:22;25.13;;;11.00;;
4464;SDS011;2245;48.136;13.428;2023-02-28T08:28:49;20.37;;;10.30;;
4464;SDS011;2245;48.136;13.428;2023-02-28T08:31:17;22.30;;;10.97;;
4464;SDS011;2245;48.136;13.428;2023-02-28T08:33:44;16.53;;;9.20;;
4464;SDS011;2245;48.136;13.428;2023-02-28T08:36:13;24.90;;;11.07;;
4464;SDS011;2245;48.136;13.428;2023-02-28T08:38:40;20.40;;;10.50;;
4464;SDS011;2245;48.136;13.428;2023-02-28T08:41:09;27.97;;;10.27;;
4464;SDS011;2245;48.136;13.428;2023-02-28T08:43:37;20.47;;;10.90;;
4464;SDS011;2245;48.136;13.428;2023-02-28T08:46:05;26.80;;;10.80;;
4464;SDS011;2245;48.136;13.428;2023-02-28T08:48:33;25.23;;;10.40;;
4464;SDS011;2245;48.136;13.428;2023-02-28T08:51:03;19.47;;;10.17;;
4464;SDS011;2245;48.136;13.428;2023-02-28T08:53:32;21.43;;;9.77;;
4464;SDS011;2245;48.136;13.428;2023-02-28T08:56:00;29.70;;;10.90;;
4464;SDS011;2245;48.136;13.428;2023-02-28T08:58:28;25.00;;;11.30;;
4464;SDS011;2245;48.136;13.428;2023-02-28T09:00:56;29.47;;;12.07;;
4464;SDS011;2245;48.136;13.428;2023-02-28T09:03:23;25.30;;;10.27;;
4464;SDS011;2245;48.136;13.428;2023-02-28T09:05:53;28.20;;;11.13;;
4464;SDS011;2245;48.136;13.428;2023-02-28T09:08:21;27.87;;;12.40;;
4464;SDS011;2245;48.136;13.428;2023-02-28T09:10:47;22.20;;;11.70;;
4464;SDS011;2245;48.136;13.428;2023-02-28T09:13:14;21.70;;;10.30;;
4464;SDS011;2245;48.136;13.428;2023-02-28T09:15:43;27.23;;;11.27;;
4464;SDS011;2245;48.136;13.428;2023-02-28T09:18:10;20.80;;;9.30;;
4464;SDS011;2245;48.136;13.428;2023-02-28T09:20:37;19.30;;;10.10;;
4464;SDS011;2245;48.136;13.428;2023-02-28T09:23:04;24.10;;;11.73;;
4464;SDS011;2245;48.136;13.428;2023-02-28T09:25:31;17.80;;;8.47;;
4464;SDS011;2245;48.136;13.428;2023-02-28T09:27:58;16.03;;;8.17;;
4464;SDS011;2245;48.136;13.428;2023-02-28T09:30:25;20.10;;;10.93;;
4464;SDS011;2245;48.136;13.428;2023-02-28T09:32:53;23.93;;;11.17;;
4464;SDS011;2245;48.136;13.428;2023-02-28T09:35:20;17.20;;;9.63;;
4464;SDS011;2245;48.136;13.428;2023-02-28T09:37:48;19.43;;;11.20;;
4464;SDS011;2245;48.136;13.428;2023-02-28T09:40:15;21.47;;;11.27;;
4464;SDS011;2245;48.136;13.428;2023-02-28T09:42:44;21.73;;;12.30;;
4464;SDS011;2245;48.136;13.428;2023-02-28T09:45:13;18.70;;;10.07;;
4464;SDS011;2245;48.136;13.428;2023-02-28T09:47:45;19.60;;;10.37;;
4464;SDS011;2245;48.136;13.428;2023-02-28T09:50:17;22.60;;;12.37;;
4464;SDS011;2245;48.136;13.428;2023-02-28T09:52:53;28.67;;;10.40;;
4464;SDS011;2245;48.136;13.428;2023-02-28T09:55:22;23.13;;;10.80;;
4464;SDS011;2245;48.136;13.428;2023-02-28T09:57:53;22.87;;;11.37;;
4464;SDS011;2245;48.136;13.428;2023-02-28T10:00:22;25.47;;;10.73;;
4464;SDS011;2245;48.136;13.428;2023-02-28T10:03:01;23.23;;;11.57;;
4464;SDS011;2245;48.136;13.428;2023-02-28T10:05:34;25.70;;;9.80;;
4464;SDS011;2245;48.136;13.428;2023-02-28T10:08:06;19.93;;;10.43;;
4464;SDS011;2245;48.136;13.428;2023-02-28T10:10:37;20.20;;;11.37;;
4464;SDS011;2245;48.136;13.428;2023-02-28T10:13:07;23.70;;;10.23;;
4464;SDS011;2245;48.136;13.428;2023-02-28T10:15:42;26.63;;;10.43;;
4464;SDS011;2245;48.136;13.428;2023-02-28T10:18:11;20.77;;;9.23;;
4464;SDS011;2245;48.136;13.428;2023-02-28T10:20:41;13.87;;;6.80;;
4464;SDS011;2245;48.136;13.428;2023-02-28T10:23:11;25.47;;;12.23;;
4464;SDS011;2245;48.136;13.428;2023-02-28T10:25:40;13.07;;;7.70;;
4464;SDS011;2245;48.136;13.428;2023-02-28T10:28:13;18.27;;;10.20;;
4464;SDS011;2245;48.136;13.428;2023-02-28T10:30:43;24.63;;;9.20;;
4464;SDS011;2245;48.136;13.428;2023-02-28T10:33:15;14.80;;;8.53;;
4464;SDS011;2245;48.136;13.428;2023-02-28T10:35:47;27.70;;;11.67;;
4464;SDS011;2245;48.136;13.428;2023-02-28T10:38:16;20.93;;;10.57;;
4464;SDS011;2245;48.136;13.428;2023-02-28T10:40:45;18.47;;;7.77;;
4464;SDS011;2245;48.136;13.428;2023-02-28T10:43:19;19.53;;;8.30;;
4464;SDS011;2245;48.136;13.428;2023-02-28T10:45:57;37.47;;;11.63;;
4464;SDS011;2245;48.136;13.428;2023-02-28T10:48:27;18.60;;;10.70;;
4464;SDS011;2245;48.136;13.428;2023-02-28T10:50:58;16.80;;;10.10;;
4464;SDS011;2245;48.136;13.428;2023-02-28T10:53:30;17.93;;;8.60;;
4464;SDS011;2245;48.136;13.428;2023-02-28T10:56:00;20.50;;;7.60;;
4464;SDS011;2245;48.136;13.428;2023-02-28T10:58:29;15.83;;;7.77;;
4464;SDS011;2245;48.136;13.428;2023-02-28T11:00:57;22.23;;;10.20;;
4464;SDS011;2245;48.136;13.428;2023-02-28T11:03:29;25.27;;;11.37;;
4464;SDS011;2245;48.136;13.428;2023-02-28T11:05:59;20.80;;;10.03;;
4464;SDS011;2245;48.136;13.428;2023-02-28T11:08:31;18.30;;;8.10;;
4464;SDS011;2245;48.136;13.428;2023-02-28T11:11:00;15.33;;;8.97;;
4464;SDS011;2245;48.136;13.428;2023-02-28T11:13:31;12.60;;;8.23;;
4464;SDS011;2245;48.136;13.428;2023-02-28T11:15:59;22.33;;;10.80;;
4464;SDS011;2245;48.136;13.428;2023-02-28T11:18:28;25.33;;;10.57;;
4464;SDS011;2245;48.136;13.428;2023-02-28T11:20:57;28.87;;;4.70;;
4464;SDS011;2245;48.136;13.428;2023-02-28T11:23:27;23.30;;;10.73;;
4464;SDS011;2245;48.136;13.428;2023-02-28T11:25:58;14.73;;;9.10;;
4464;SDS011;2245;48.136;13.428;2023-02-28T11:28:27;21.07;;;6.40;;
4464;SDS011;2245;48.136;13.428;2023-02-28T11:31:00;14.27;;;7.40;;
4464;SDS011;2245;48.136;13.428;2023-02-28T11:33:29;15.37;;;8.77;;
4464;SDS011;2245;48.136;13.428;2023-02-28T11:35:58;17.00;;;8.00;;
4464;SDS011;2245;48.136;13.428;2023-02-28T11:38:27;16.40;;;8.77;;
4464;SDS011;2245;48.136;13.428;2023-02-28T11:41:02;16.27;;;8.50;;
4464;SDS011;2245;48.136;13.428;2023-02-28T11:44:11;14.30;;;8.53;;
4464;SDS011;2245;48.136;13.428;2023-02-28T11:46:47;16.37;;;7.80;;
4464;SDS011;2245;48.136;13.428;2023-02-28T11:49:20;21.20;;;8.40;;
4464;SDS011;2245;48.136;13.428;2023-02-28T11:51:56;18.10;;;10.73;;
4464;SDS011;2245;48.136;13.428;2023-02-28T11:54:35;18.33;;;8.70;;
4464;SDS011;2245;48.136;13.428;2023-02-28T11:57:18;22.33;;;8.93;;
4464;SDS011;2245;48.136;13.428;2023-02-28T11:59:53;22.83;;;11.87;;
4464;SDS011;2245;48.136;13.428;2023-02-28T12:02:25;20.10;;;10.90;;
4464;SDS011;2245;48.136;13.428;2023-02-28T12:04:58;40.23;;;17.80;;
4464;SDS011;2245;48.136;13.428;2023-02-28T12:07:36;13.13;;;7.13;;
4464;SDS011;2245;48.136;13.428;2023-02-28T12:10:09;18.07;;;10.13;;
4464;SDS011;2245;48.136;13.428;2023-02-28T12:12:48;15.43;;;9.40;;
4464;SDS011;2245;48.136;13.428;2023-02-28T12:15:24;24.63;;;10.50;;
4464;SDS011;2245;48.136;13.428;2023-02-28T12:18:00;24.87;;;11.40;;
4464;SDS011;2245;48.136;13.428;2023-02-28T12:20:34;22.13;;;9.80;;
4464;SDS011;2245;48.136;13.428;2023-02-28T12:23:15;24.80;;;10.30;;
4464;SDS011;2245;48.136;13.428;2023-02-28T12:25:50;30.67;;;8.70;;
4464;SDS011;2245;48.136;13.428;2023-02-28T12:28:25;14.53;;;7.07;;
4464;SDS011;2245;48.136;13.428;2023-02-28T12:30:56;19.20;;;8.63;;
4464;SDS011;2245;48.136;13.428;2023-02-28T12:33:26;33.00;;;13.57;;
4464;SDS011;2245;48.136;13.428;2023-02-28T12:35:57;18.53;;;9.60;;
4464;SDS011;2245;48.136;13.428;2023-02-28T12:38:27;16.47;;;7.27;;
4464;SDS011;2245;48.136;13.428;2023-02-28T12:40:56;16.37;;;9.63;;
4464;SDS011;2245;48.136;13.428;2023-02-28T12:43:27;16.50;;;8.60;;
4464;SDS011;2245;48.136;13.428;2023-02-28T12:45:58;19.07;;;10.10;;
4464;SDS011;2245;48.136;13.428;2023-02-28T12:48:28;20.83;;;9.40;;
4464;SDS011;2245;48.136;13.428;2023-02-28T12:50:57;14.00;;;8.57;;
4464;SDS011;2245;48.136;13.428;2023-02-28T12:53:27;20.43;;;6.77;;
4464;SDS011;2245;48.136;13.428;2023-02-28T12:56:01;17.17;;;9.43;;
4464;SDS011;2245;48.136;13.428;2023-02-28T12:58:36;20.53;;;11.67;;
4464;SDS011;2245;48.136;13.428;2023-02-28T13:01:26;13.23;;;7.53;;
4464;SDS011;2245;48.136;13.428;2023-02-28T13:04:08;18.43;;;9.30;;
4464;SDS011;2245;48.136;13.428;2023-02-28T13:06:56;15.30;;;8.10;;
4464;SDS011;2245;48.136;13.428;2023-02-28T13:09:32;21.23;;;11.37;;
4464;SDS011;2245;48.136;13.428;2023-02-28T13:11:59;15.97;;;9.60;;
4464;SDS011;2245;48.136;13.428;2023-02-28T13:14:26;18.27;;;8.10;;
4464;SDS011;2245;48.136;13.428;2023-02-28T13:16:56;18.83;;;9.00;;
4464;SDS011;2245;48.136;13.428;2023-02-28T13:19:26;17.40;;;8.70;;
4464;SDS011;2245;48.136;13.428;2023-02-28T13:21:54;13.77;;;7.70;;
4464;SDS011;2245;48.136;13.428;2023-02-28T13:24:42;14.57;;;8.43;;
4464;SDS011;2245;48.136;13.428;2023-02-28T13:27:20;18.73;;;9.93;;
4464;SDS011;2245;48.136;13.428;2023-02-28T13:29:50;23.20;;;9.13;;
4464;SDS011;2245;48.136;13.428;2023-02-28T13:38:25;17.03;;;7.97;;
4464;SDS011;2245;48.136;13.428;2023-02-28T13:44:06;18.03;;;9.63;;
4464;SDS011;2245;48.136;13.428;2023-02-28T13:46:35;22.37;;;11.13;;
4464;SDS011;2245;48.136;13.428;2023-02-28T13:49:18;11.90;;;8.10;;
4464;SDS011;2245;48.136;13.428;2023-02-28T13:51:46;13.60;;;6.73;;
4464;SDS011;2245;48.136;13.428;2023-02-28T13:54:16;20.70;;;9.83;;
4464;SDS011;2245;48.136;13.428;2023-02-28T13:56:51;14.97;;;8.23;;
4464;SDS011;2245;48.136;13.428;2023-02-28T13:59:25;17.23;;;8.97;;
4464;SDS011;2245;48.136;13.428;2023-02-28T14:02:01;16.70;;;7.10;;
4464;SDS011;2245;48.136;13.428;2023-02-28T14:04:46;17.70;;;8.83;;
4464;SDS011;2245;48.136;13.428;2023-02-28T14:07:17;14.70;;;8.37;;
4464;SDS011;2245;48.136;13.428;2023-02-28T14:09:46;19.33;;;9.67;;
4464;SDS011;2245;48.136;13.428;2023-02-28T14:15:28;20.27;;;9.97;;
4464;SDS011;2245;48.136;13.428;2023-02-28T14:18:13;15.00;;;7.73;;
4464;SDS011;2245;48.136;13.428;2023-02-28T14:20:42;12.17;;;6.10;;
4464;SDS011;2245;48.136;13.428;2023-02-28T14:23:12;14.70;;;7.37;;
4464;SDS011;2245;48.136;13.428;2023-02-28T14:25:44;18.60;;;6.07;;
4464;SDS011;2245;48.136;13.428;2023-02-28T14:28:21;13.10;;;7.20;;
4464;SDS011;2245;48.136;13.428;2023-02-28T14:30:59;14.10;;;8.90;;
4464;SDS011;2245;48.136;13.428;2023-02-28T14:33:35;20.30;;;9.33;;
4464;SDS011;2245;48.136;13.428;2023-02-28T14:36:16;9.73;;;6.70;;
4464;SDS011;2245;48.136;13.428;2023-02-28T14:38:45;19.20;;;8.53;;
4464;SDS011;2245;48.136;13.428;2023-02-28T14:41:17;11.53;;;6.30;;
4464;SDS011;2245;48.136;13.428;2023-02-28T14:43:48;14.40;;;7.30;;
4464;SDS011;2245;48.136;13.428;2023-02-28T14:46:17;17.53;;;9.30;;
4464;SDS011;2245;48.136;13.428;2023-02-28T14:48:45;22.23;;;9.60;;
4464;SDS011;2245;48.136;13.428;2023-02-28T14:51:13;23.10;;;9.33;;
4464;SDS011;2245;48.136;13.428;2023-02-28T14:53:47;18.00;;;8.90;;
4464;SDS011;2245;48.136;13.428;2023-02-28T14:56:22;20.27;;;10.23;;
4464;SDS011;2245;48.136;13.428;2023-02-28T14:58:53;25.47;;;10.23;;
4464;SDS011;2245;48.136;13.428;2023-02-28T15:01:23;19.63;;;9.30;;
4464;SDS011;2245;48.136;13.428;2023-02-28T15:03:58;24.67;;;11.33;;
4464;SDS011;2245;48.136;13.428;2023-02-28T15:06:26;19.70;;;9.80;;
4464;SDS011;2245;48.136;13.428;2023-02-28T15:09:09;18.80;;;9.80;;
4464;SDS011;2245;48.136;13.428;2023-02-28T15:11:37;22.60;;;9.33;;
4464;SDS011;2245;48.136;13.428;2023-02-28T15:14:05;11.47;;;7.37;;
4464;SDS011;2245;48.136;13.428;2023-02-28T15:16:33;12.77;;;8.60;;